createdAt,value
2018-09-29T00:02:10.928Z,4.69
2018-09-29T00:04:39.261Z,4.66
2018-09-29T00:07:08.679Z,4.66
2018-09-29T00:09:38.025Z,4.58
2018-09-29T00:12:07.373Z,4.57
2018-09-29T00:14:36.476Z,4.55
2018-09-29T00:17:04.817Z,4.54
2018-09-29T00:19:33.158Z,4.48
2018-09-29T00:22:01.952Z,4.54
2018-09-29T00:24:31.028Z,4.53
2018-09-29T00:27:00.839Z,4.55
2018-09-29T00:29:30.013Z,4.55
2018-09-29T00:31:59.089Z,4.50
2018-09-29T00:34:27.452Z,4.45
2018-09-29T00:36:55.831Z,4.43
2018-09-29T00:39:24.164Z,4.44
2018-09-29T00:41:52.480Z,4.40
2018-09-29T00:44:21.849Z,4.42
2018-09-29T00:46:51.246Z,4.58
2018-09-29T00:49:19.575Z,4.59
2018-09-29T00:51:47.941Z,4.57
2018-09-29T00:54:17.284Z,4.48
2018-09-29T00:56:46.497Z,4.43
2018-09-29T00:59:15.749Z,4.43
2018-09-29T01:01:44.097Z,4.44
2018-09-29T01:04:13.402Z,4.42
2018-09-29T01:06:42.665Z,4.43
2018-09-29T01:09:12.136Z,4.40
2018-09-29T01:11:41.393Z,4.51
2018-09-29T01:14:10.744Z,4.52
2018-09-29T01:16:40.097Z,4.49
2018-09-29T01:19:09.505Z,4.49
2018-09-29T01:21:39.845Z,4.52
2018-09-29T01:24:09.125Z,4.57
2018-09-29T01:26:38.386Z,4.53
2018-09-29T01:29:08.589Z,4.53
2018-09-29T01:31:37.925Z,4.63
2018-09-29T01:34:07.376Z,4.53
2018-09-29T01:36:37.870Z,4.55
2018-09-29T01:39:08.505Z,4.64
2018-09-29T01:41:39.041Z,4.58
2018-09-29T01:44:08.568Z,4.52
2018-09-29T01:46:39.075Z,4.50
2018-09-29T01:49:08.353Z,4.44
2018-09-29T01:51:39.028Z,4.40
2018-09-29T01:54:08.377Z,4.32
2018-09-29T01:56:38.953Z,4.28
2018-09-29T01:59:08.161Z,4.24
2018-09-29T02:01:38.694Z,4.20
2018-09-29T02:04:07.949Z,4.15
2018-09-29T02:06:38.225Z,4.10
2018-09-29T02:09:08.581Z,4.12
2018-09-29T02:11:37.636Z,4.13
2018-09-29T02:14:07.049Z,4.05
2018-09-29T02:16:37.413Z,4.06
2018-09-29T02:19:06.421Z,4.06
2018-09-29T02:21:36.465Z,4.04
2018-09-29T02:24:06.549Z,4.08
2018-09-29T02:26:35.905Z,4.01
2018-09-29T02:29:04.344Z,4.06
2018-09-29T02:31:33.674Z,4.13
2018-09-29T02:34:03.033Z,4.09
2018-09-29T02:36:31.361Z,4.06
2018-09-29T02:39:02.026Z,4.08
2018-09-29T02:41:30.426Z,4.08
2018-09-29T02:43:59.802Z,4.01
2018-09-29T02:46:28.167Z,3.99
2018-09-29T02:48:58.021Z,3.89
2018-09-29T02:51:26.410Z,3.82
2018-09-29T02:53:55.733Z,3.83
2018-09-29T02:56:24.089Z,3.80
2018-09-29T02:58:53.359Z,3.84
2018-09-29T03:01:22.726Z,3.92
2018-09-29T03:03:51.871Z,3.86
2018-09-29T03:06:21.077Z,3.87
2018-09-29T03:08:49.412Z,3.78
2018-09-29T03:11:17.758Z,3.74
2018-09-29T03:13:46.099Z,3.70
2018-09-29T03:16:14.519Z,3.66
2018-09-29T03:18:42.857Z,3.56
2018-09-29T03:21:11.198Z,3.53
2018-09-29T03:23:39.547Z,3.45
2018-09-29T03:26:08.651Z,3.41
2018-09-29T03:28:37.664Z,3.42
2018-09-29T03:31:07.222Z,3.48
2018-09-29T03:33:37.513Z,3.43
2018-09-29T03:36:07.424Z,3.40
2018-09-29T03:38:36.554Z,3.38
2018-09-29T03:41:04.925Z,3.36
2018-09-29T03:43:33.253Z,3.43
2018-09-29T03:46:01.585Z,3.43
2018-09-29T03:48:31.253Z,3.38
2018-09-29T03:51:00.621Z,3.34
2018-09-29T03:53:29.338Z,3.32
2018-09-29T03:55:58.147Z,3.31
2018-09-29T03:58:26.494Z,3.32
2018-09-29T04:00:55.721Z,3.31
2018-09-29T04:03:24.056Z,3.22
2018-09-29T04:05:52.389Z,3.18
2018-09-29T04:08:20.721Z,3.17
2018-09-29T04:10:49.942Z,3.19
2018-09-29T04:13:19.320Z,3.36
2018-09-29T04:15:47.697Z,3.37
2018-09-29T04:18:16.078Z,3.39
2018-09-29T04:20:45.357Z,3.50
2018-09-29T04:23:13.761Z,3.49
2018-09-29T04:25:42.960Z,3.45
2018-09-29T04:28:12.277Z,3.39
2018-09-29T04:30:41.644Z,3.42
2018-09-29T04:33:10.865Z,3.38
2018-09-29T04:35:40.090Z,3.44
2018-09-29T04:38:09.425Z,3.47
2018-09-29T04:40:39.762Z,3.43
2018-09-29T04:43:08.134Z,3.44
2018-09-29T04:45:38.212Z,3.52
2018-09-29T04:48:07.620Z,3.53
2018-09-29T04:50:37.433Z,3.49
2018-09-29T04:53:07.798Z,3.49
2018-09-29T04:55:37.203Z,3.52
2018-09-29T04:58:06.849Z,3.52
2018-09-29T05:00:36.346Z,3.53
2018-09-29T05:03:05.493Z,3.65
2018-09-29T05:05:33.821Z,3.60
2018-09-29T05:08:02.151Z,3.59
2018-09-29T05:10:31.249Z,3.59
2018-09-29T05:13:00.681Z,3.54
2018-09-29T05:15:30.197Z,3.52
2018-09-29T05:17:58.673Z,3.51
2018-09-29T05:20:27.001Z,3.57
2018-09-29T05:22:55.345Z,3.49
2018-09-29T05:25:23.704Z,3.44
2018-09-29T05:27:53.073Z,3.34
2018-09-29T05:30:21.417Z,3.31
2018-09-29T05:32:49.749Z,3.34
2018-09-29T05:35:18.085Z,3.44
2018-09-29T05:37:46.414Z,3.45
2018-09-29T05:40:14.758Z,3.49
2018-09-29T05:42:43.097Z,3.58
2018-09-29T05:45:11.439Z,3.57
2018-09-29T05:47:39.773Z,3.59
2018-09-29T05:50:08.281Z,3.71
2018-09-29T05:52:37.543Z,3.71
2018-09-29T05:55:05.894Z,3.76
2018-09-29T05:57:36.391Z,3.77
2018-09-29T06:00:05.421Z,3.86
2018-09-29T06:02:33.764Z,3.92
2018-09-29T06:05:02.353Z,3.91
2018-09-29T06:07:31.992Z,3.95
2018-09-29T06:10:01.324Z,3.96
2018-09-29T06:12:31.457Z,4.01
2018-09-29T06:15:01.230Z,4.13
2018-09-29T06:17:30.793Z,4.27
2018-09-29T06:20:01.161Z,4.39
2018-09-29T06:22:31.384Z,4.50
2018-09-29T06:25:02.029Z,4.57
2018-09-29T06:27:31.269Z,4.64
2018-09-29T06:30:00.254Z,4.77
2018-09-29T06:32:30.509Z,4.78
2018-09-29T06:34:59.914Z,4.98
2018-09-29T06:37:28.761Z,5.11
2018-09-29T06:39:57.097Z,5.23
2018-09-29T06:42:25.444Z,5.50
2018-09-29T06:44:53.901Z,5.60
2018-09-29T06:47:22.233Z,5.68
2018-09-29T06:49:50.583Z,5.81
2018-09-29T06:52:19.961Z,5.90
2018-09-29T06:54:49.254Z,6.01
2018-09-29T06:57:18.606Z,6.11
2018-09-29T06:59:47.891Z,6.16
2018-09-29T07:02:16.233Z,6.24
2018-09-29T07:04:45.376Z,6.31
2018-09-29T07:07:14.562Z,6.38
2018-09-29T07:09:42.898Z,6.51
2018-09-29T07:12:11.625Z,6.62
2018-09-29T07:14:40.989Z,6.81
2018-09-29T07:17:10.216Z,6.93
2018-09-29T07:19:38.546Z,7.02
2018-09-29T07:22:09.004Z,7.13
2018-09-29T07:24:38.853Z,7.21
2018-09-29T07:27:08.087Z,7.46
2018-09-29T07:29:37.982Z,7.56
2018-09-29T07:32:08.073Z,7.73
2018-09-29T07:34:38.689Z,7.78
2018-09-29T07:37:09.058Z,8.01
2018-09-29T07:39:38.388Z,8.11
2018-09-29T07:42:08.201Z,8.21
2018-09-29T07:44:39.051Z,8.39
2018-09-29T07:47:08.308Z,8.43
2018-09-29T07:49:38.698Z,8.55
2018-09-29T07:52:08.109Z,8.67
2018-09-29T07:54:37.427Z,8.86
2018-09-29T07:57:07.473Z,8.97
2018-09-29T07:59:35.877Z,9.08
2018-09-29T08:02:04.214Z,9.16
2018-09-29T08:04:32.830Z,9.25
2018-09-29T08:07:01.223Z,9.32
2018-09-29T08:09:30.644Z,9.52
2018-09-29T08:11:59.441Z,9.58
2018-09-29T08:14:29.392Z,9.68
2018-09-29T08:16:58.234Z,9.80
2018-09-29T08:19:26.573Z,10.10
2018-09-29T08:21:54.952Z,10.07
2018-09-29T08:24:24.251Z,10.19
2018-09-29T08:26:52.560Z,10.35
2018-09-29T08:29:20.905Z,10.51
2018-09-29T08:31:49.313Z,10.52
2018-09-29T08:34:17.696Z,10.64
2018-09-29T08:36:46.064Z,10.78
2018-09-29T08:39:14.530Z,10.75
2018-09-29T08:41:42.929Z,10.94
2018-09-29T08:44:11.241Z,11.04
2018-09-29T08:46:39.650Z,11.06
2018-09-29T08:49:07.964Z,11.10
2018-09-29T08:51:36.939Z,11.11
2018-09-29T08:54:06.280Z,11.19
2018-09-29T08:56:37.130Z,11.20
2018-09-29T08:59:06.769Z,11.27
2018-09-29T09:01:36.709Z,11.49
2018-09-29T09:04:06.167Z,11.55
2018-09-29T09:06:35.985Z,11.65
2018-09-29T09:09:06.521Z,11.76
2018-09-29T09:11:36.155Z,11.92
2018-09-29T09:14:05.403Z,11.86
2018-09-29T09:16:33.757Z,11.92
2018-09-29T09:19:03.154Z,12.05
2018-09-29T09:21:32.121Z,12.20
2018-09-29T09:24:01.068Z,12.49
2018-09-29T09:29:06.326Z,12.44
2018-09-29T09:31:35.384Z,12.23
2018-09-29T09:34:03.773Z,12.05
2018-09-29T09:36:32.989Z,12.22
2018-09-29T09:39:01.584Z,12.40
2018-09-29T09:41:30.716Z,12.58
2018-09-29T09:43:59.492Z,12.58
2018-09-29T09:46:27.845Z,12.54
2018-09-29T09:48:56.186Z,12.71
2018-09-29T09:51:25.609Z,12.61
2018-09-29T09:53:53.948Z,12.83
2018-09-29T09:56:22.337Z,13.12
2018-09-29T09:58:50.677Z,13.09
2018-09-29T10:01:41.414Z,13.14
2018-09-29T10:04:10.731Z,13.36
2018-09-29T10:06:39.070Z,13.37
2018-09-29T10:09:09.825Z,13.03
2018-09-29T10:11:38.200Z,13.17
2018-09-29T10:14:07.566Z,13.23
2018-09-29T10:16:37.778Z,13.30
2018-09-29T10:19:07.777Z,13.26
2018-09-29T10:21:37.520Z,13.36
2018-09-29T10:24:05.943Z,13.44
2018-09-29T10:26:35.106Z,13.45
2018-09-29T10:29:03.458Z,13.36
2018-09-29T10:31:31.793Z,13.38
2018-09-29T10:34:01.109Z,13.50
2018-09-29T10:36:30.889Z,13.48
2018-09-29T10:39:00.362Z,13.38
2018-09-29T10:41:29.422Z,13.55
2018-09-29T10:43:59.526Z,13.66
2018-09-29T10:46:28.486Z,13.85
2018-09-29T10:48:56.838Z,14.10
2018-09-29T10:51:25.204Z,14.16
2018-09-29T10:53:53.669Z,14.17
2018-09-29T10:56:22.080Z,14.27
2018-09-29T10:58:50.416Z,14.31
2018-09-29T11:01:18.756Z,14.31
2018-09-29T11:03:47.253Z,14.42
2018-09-29T11:06:15.578Z,14.26
2018-09-29T11:08:43.965Z,14.33
2018-09-29T11:11:12.292Z,14.07
2018-09-29T11:13:41.477Z,14.10
2018-09-29T11:16:09.810Z,14.23
2018-09-29T11:18:38.253Z,14.32
2018-09-29T11:21:07.937Z,14.39
2018-09-29T11:23:37.849Z,14.59
2018-09-29T11:26:07.341Z,14.46
2018-09-29T11:28:36.772Z,14.51
2018-09-29T11:31:07.193Z,14.53
2018-09-29T11:33:36.532Z,14.74
2018-09-29T11:36:05.329Z,14.73
2018-09-29T11:38:33.989Z,14.78
2018-09-29T11:41:02.321Z,14.45
2018-09-29T11:43:30.689Z,14.50
2018-09-29T11:45:59.403Z,14.49
2018-09-29T11:48:28.873Z,14.94
2018-09-29T11:50:57.218Z,15.21
2018-09-29T11:53:25.554Z,15.25
2018-09-29T11:55:54.761Z,15.15
2018-09-29T11:58:23.167Z,15.01
2018-09-29T12:00:51.569Z,15.09
2018-09-29T12:03:20.917Z,15.35
2018-09-29T12:05:49.309Z,15.30
2018-09-29T12:08:17.902Z,15.02
2018-09-29T12:10:47.162Z,14.77
2018-09-29T12:13:15.513Z,14.87
2018-09-29T12:15:43.846Z,15.10
2018-09-29T12:18:12.184Z,15.23
2018-09-29T12:20:40.532Z,15.19
2018-09-29T12:23:08.885Z,15.32
2018-09-29T12:25:37.841Z,14.97
2018-09-29T12:28:07.329Z,14.89
2018-09-29T12:30:37.571Z,14.65
2018-09-29T12:33:06.393Z,14.74
2018-09-29T12:35:35.417Z,14.61
2018-09-29T12:38:03.798Z,14.97
2018-09-29T12:40:32.135Z,14.90
2018-09-29T12:43:01.204Z,14.76
2018-09-29T12:45:30.257Z,14.53
2018-09-29T12:47:59.497Z,14.27
2018-09-29T12:50:28.928Z,14.08
2018-09-29T12:52:58.561Z,13.83
2018-09-29T12:55:27.953Z,13.83
2018-09-29T12:57:57.169Z,13.83
2018-09-29T13:00:25.572Z,13.73
2018-09-29T13:02:54.967Z,13.97
2018-09-29T13:05:23.345Z,14.22
2018-09-29T13:07:51.720Z,14.48
2018-09-29T13:10:20.062Z,14.53
2018-09-29T13:12:48.448Z,14.60
2018-09-29T13:15:16.841Z,14.63
2018-09-29T13:17:45.403Z,14.61
2018-09-29T13:20:13.728Z,14.71
2018-09-29T13:22:43.096Z,14.67
2018-09-29T13:25:11.473Z,14.57
2018-09-29T13:27:41.141Z,14.54
2018-09-29T13:30:09.474Z,14.45
2018-09-29T13:32:39.442Z,14.15
2018-09-29T13:35:08.544Z,14.18
2018-09-29T13:37:39.297Z,13.94
2018-09-29T13:40:09.174Z,13.86
2018-09-29T13:42:38.389Z,13.60
2018-09-29T13:45:08.050Z,13.46
2018-09-29T13:47:38.242Z,13.39
2018-09-29T13:50:08.265Z,13.24
2018-09-29T13:52:37.614Z,13.18
2018-09-29T13:55:05.985Z,13.15
2018-09-29T13:57:36.222Z,13.21
2018-09-29T14:00:05.313Z,13.10
2018-09-29T14:02:33.713Z,13.12
2018-09-29T14:05:02.068Z,13.10
2018-09-29T14:07:31.281Z,12.85
2018-09-29T14:10:00.889Z,12.76
2018-09-29T14:12:29.232Z,12.81
2018-09-29T14:14:58.577Z,12.78
2018-09-29T14:17:28.461Z,12.88
2018-09-29T14:19:57.680Z,13.06
2018-09-29T14:22:26.094Z,13.21
2018-09-29T14:24:55.408Z,13.41
2018-09-29T14:27:23.789Z,13.31
2018-09-29T14:29:53.152Z,13.24
2018-09-29T14:32:21.766Z,13.02
2018-09-29T14:34:50.105Z,12.94
2018-09-29T14:37:19.469Z,13.11
2018-09-29T14:39:47.834Z,13.17
2018-09-29T14:42:16.197Z,13.29
2018-09-29T14:44:45.587Z,13.49
2018-09-29T14:47:14.920Z,13.47
2018-09-29T14:49:43.298Z,13.53
2018-09-29T14:52:11.649Z,13.64
2018-09-29T14:54:40.058Z,13.69
2018-09-29T14:57:08.395Z,13.88
2018-09-29T14:59:39.339Z,13.87
2018-09-29T15:02:09.022Z,14.01
2018-09-29T15:04:41.384Z,14.06
2018-09-29T15:07:09.716Z,14.05
2018-09-29T15:09:38.054Z,14.01
2018-09-29T15:12:06.990Z,14.01
2018-09-29T15:14:36.076Z,13.84
2018-09-29T15:17:06.225Z,13.74
2018-09-29T15:19:35.758Z,13.73
2018-09-29T15:22:05.026Z,13.72
2018-09-29T15:24:33.388Z,13.66
2018-09-29T15:27:02.648Z,13.66
2018-09-29T15:29:32.849Z,13.55
2018-09-29T15:32:02.617Z,13.53
2018-09-29T15:34:31.786Z,13.46
2018-09-29T15:37:01.997Z,13.32
2018-09-29T15:39:31.365Z,13.29
2018-09-29T15:42:00.875Z,13.17
2018-09-29T15:44:30.114Z,13.03
2018-09-29T15:46:59.489Z,13.08
2018-09-29T15:49:28.758Z,13.02
2018-09-29T15:51:57.199Z,13.00
2018-09-29T15:54:25.680Z,12.86
2018-09-29T15:56:54.149Z,12.76
2018-09-29T15:59:22.648Z,12.72
2018-09-29T16:01:52.033Z,12.61
2018-09-29T16:04:20.382Z,12.56
2018-09-29T16:06:48.871Z,12.40
2018-09-29T16:09:17.225Z,12.29
2018-09-29T16:11:45.544Z,12.13
2018-09-29T16:14:14.361Z,12.08
2018-09-29T16:16:43.693Z,11.95
2018-09-29T16:19:12.906Z,11.90
2018-09-29T16:21:41.261Z,11.92
2018-09-29T16:24:09.598Z,11.73
2018-09-29T16:26:38.773Z,11.59
2018-09-29T16:29:08.145Z,11.44
2018-09-29T16:31:37.877Z,11.31
2018-09-29T16:34:08.021Z,11.21
2018-09-29T16:36:36.805Z,11.13
2018-09-29T16:39:09.182Z,10.98
2018-09-29T16:41:38.426Z,10.83
2018-09-29T16:44:07.459Z,10.68
2018-09-29T16:46:37.701Z,10.52
2018-09-29T16:49:07.537Z,10.37
2018-09-29T16:51:35.913Z,10.31
2018-09-29T16:54:06.114Z,10.20
2018-09-29T16:56:36.333Z,10.15
2018-09-29T16:59:07.211Z,10.07
2018-09-29T17:01:37.233Z,10.00
2018-09-29T17:04:07.916Z,9.84
2018-09-29T17:06:37.154Z,9.76
2018-09-29T17:09:09.369Z,9.66
2018-09-29T17:11:39.438Z,9.61
2018-09-29T17:14:08.390Z,9.45
2018-09-29T17:16:38.770Z,9.37
2018-09-29T17:19:08.281Z,9.21
2018-09-29T17:21:37.693Z,9.17
2018-09-29T17:24:06.077Z,9.11
2018-09-29T17:26:34.449Z,9.08
2018-09-29T17:29:02.827Z,9.04
2018-09-29T17:31:32.298Z,8.92
2018-09-29T17:34:01.312Z,8.82
2018-09-29T17:36:30.702Z,8.82
2018-09-29T17:38:59.560Z,8.80
2018-09-29T17:41:28.662Z,8.68
2018-09-29T17:43:56.993Z,8.60
2018-09-29T17:46:25.378Z,8.49
2018-09-29T17:48:53.769Z,8.43
2018-09-29T17:51:22.210Z,8.39
2018-09-29T17:53:50.553Z,8.33
2018-09-29T17:56:18.892Z,8.28
2018-09-29T17:58:47.350Z,8.32
2018-09-29T18:01:15.689Z,8.30
2018-09-29T18:03:44.041Z,8.25
2018-09-29T18:06:12.413Z,8.21
2018-09-29T18:08:40.809Z,8.20
2018-09-29T18:11:09.182Z,8.08
2018-09-29T18:13:39.956Z,7.98
2018-09-29T18:16:08.273Z,7.92
2018-09-29T18:18:38.109Z,7.87
2018-09-29T18:21:07.798Z,7.83
2018-09-29T18:23:36.903Z,7.80
2018-09-29T18:26:07.299Z,7.78
2018-09-29T18:28:36.880Z,7.74
2018-09-29T18:31:06.236Z,7.70
2018-09-29T18:33:35.626Z,7.65
2018-09-29T18:36:03.986Z,7.68
2018-09-29T18:38:32.362Z,7.63
2018-09-29T18:41:02.707Z,7.61
2018-09-29T18:43:32.765Z,7.56
2018-09-29T18:46:02.668Z,7.53
2018-09-29T18:48:32.571Z,7.47
2018-09-29T18:51:01.761Z,7.44
2018-09-29T18:56:21.557Z,7.42
2018-09-29T18:58:49.974Z,7.37
2018-09-29T19:01:18.422Z,7.36
2018-09-29T19:03:46.784Z,7.29
2018-09-29T19:06:15.190Z,7.23
2018-09-29T19:08:44.605Z,7.15
2018-09-29T19:11:14.913Z,7.15
2018-09-29T19:13:44.015Z,7.11
2018-09-29T19:16:12.416Z,7.06
2018-09-29T19:18:41.668Z,7.01
2018-09-29T19:21:10.010Z,6.94
2018-09-29T19:23:39.482Z,6.88
2018-09-29T19:26:09.632Z,6.81
2018-09-29T19:28:38.746Z,6.76
2018-09-29T19:31:08.694Z,6.71
2018-09-29T19:33:37.755Z,6.66
2018-09-29T19:36:07.954Z,6.61
2018-09-29T19:38:37.750Z,6.55
2018-09-29T19:41:06.089Z,6.51
2018-09-29T19:43:34.480Z,6.50
2018-09-29T19:46:02.829Z,6.44
2018-09-29T19:48:32.207Z,6.44
2018-09-29T19:51:01.550Z,6.42
2018-09-29T19:53:31.817Z,6.41
2018-09-29T19:56:00.845Z,6.39
2018-09-29T19:58:29.777Z,6.35
2018-09-29T20:00:58.209Z,6.35
2018-09-29T20:03:26.573Z,6.33
2018-09-29T20:05:55.010Z,6.29
2018-09-29T20:08:25.767Z,6.27
2018-09-29T20:10:55.245Z,6.26
2018-09-29T20:13:23.662Z,6.20
2018-09-29T20:15:52.019Z,6.21
2018-09-29T20:18:20.417Z,6.20
2018-09-29T20:20:48.754Z,6.16
2018-09-29T20:23:17.094Z,6.17
2018-09-29T20:25:45.450Z,6.16
2018-09-29T20:28:13.794Z,6.16
2018-09-29T20:30:43.088Z,6.11
2018-09-29T20:33:11.446Z,6.08
2018-09-29T20:35:39.797Z,6.07
2018-09-29T20:38:09.145Z,6.07
2018-09-29T20:40:38.174Z,6.05
2018-09-29T20:43:07.937Z,6.04
2018-09-29T20:45:36.816Z,6.00
2018-09-29T20:48:05.904Z,5.94
2018-09-29T20:50:34.229Z,5.89
2018-09-29T20:53:03.649Z,5.83
2018-09-29T20:55:32.054Z,5.82
2018-09-29T20:58:01.950Z,5.78
2018-09-29T21:00:32.535Z,5.74
2018-09-29T21:03:01.842Z,5.74
2018-09-29T21:05:32.205Z,5.71
2018-09-29T21:08:01.933Z,5.69
2018-09-29T21:10:31.967Z,5.69
2018-09-29T21:13:01.259Z,5.68
2018-09-29T21:15:30.465Z,5.70
2018-09-29T21:17:58.873Z,5.75
2018-09-29T21:20:27.253Z,5.73
2018-09-29T21:22:56.613Z,5.74
2018-09-29T21:25:24.993Z,5.74
2018-09-29T21:27:54.368Z,5.73
2018-09-29T21:30:22.697Z,5.74
2018-09-29T21:32:52.059Z,5.61
2018-09-29T21:35:21.291Z,5.64
2018-09-29T21:37:49.629Z,5.67
2018-09-29T21:40:18.269Z,5.71
2018-09-29T21:42:46.605Z,5.73
2018-09-29T21:45:15.993Z,5.72
2018-09-29T21:47:45.213Z,5.74
2018-09-29T21:50:14.452Z,5.69
2018-09-29T21:52:43.685Z,5.63
2018-09-29T21:55:12.097Z,5.58
2018-09-29T21:57:40.492Z,5.61
2018-09-29T22:00:08.873Z,5.51
2018-09-29T22:02:38.232Z,5.47
2018-09-29T22:05:07.506Z,5.43
2018-09-29T22:07:36.472Z,5.36
2018-09-29T22:10:05.350Z,5.37
2018-09-29T22:12:33.754Z,5.35
2018-09-29T22:15:02.102Z,5.31
2018-09-29T22:17:30.940Z,5.27
2018-09-29T22:19:59.934Z,5.27
2018-09-29T22:22:28.318Z,5.23
2018-09-29T22:24:56.689Z,5.23
2018-09-29T22:27:25.013Z,5.15
2018-09-29T22:29:53.410Z,5.10
2018-09-29T22:32:22.813Z,5.10
2018-09-29T22:34:51.165Z,5.10
2018-09-29T22:37:19.539Z,5.07
2018-09-29T22:39:47.890Z,5.00
2018-09-29T22:42:17.095Z,4.97
2018-09-29T22:44:45.493Z,4.93
2018-09-29T22:47:13.846Z,4.87
2018-09-29T22:49:42.178Z,4.85
2018-09-29T22:52:11.422Z,4.82
2018-09-29T22:54:40.729Z,4.82
2018-09-29T22:57:10.078Z,4.81
2018-09-29T22:59:38.457Z,4.82
2018-09-29T23:02:08.096Z,4.81
2018-09-29T23:04:36.994Z,4.86
2018-09-29T23:07:06.049Z,4.83
2018-09-29T23:09:34.509Z,4.82
2018-09-29T23:12:02.845Z,4.78
2018-09-29T23:14:31.894Z,4.74
2018-09-29T23:17:02.363Z,4.71
2018-09-29T23:19:31.945Z,4.68
2018-09-29T23:22:02.149Z,4.63
2018-09-29T23:24:32.881Z,4.59
2018-09-29T23:27:02.140Z,4.60
2018-09-29T23:29:32.900Z,4.59
2018-09-29T23:32:03.322Z,4.58
2018-09-29T23:34:31.709Z,4.58
2018-09-29T23:37:02.027Z,4.63
2018-09-29T23:39:32.715Z,4.62
2018-09-29T23:42:02.513Z,4.60
2018-09-29T23:44:31.861Z,4.59
2018-09-29T23:47:01.989Z,4.64
2018-09-29T23:49:31.905Z,4.64
2018-09-29T23:52:01.125Z,4.59
2018-09-29T23:54:29.984Z,4.52
2018-09-29T23:56:59.878Z,4.46
2018-09-29T23:59:28.900Z,4.39
